Time;durP1;ratioP1;P1;durP2;ratioP2;P2;SDS_P1;SDS_P2;PMS_P1;PMS_P2;Temp;Humidity;BMP_temperature;BMP_pressure;BME280_temperature;BME280_humidity;BME280_pressure;Samples;Min_cycle;Max_cycle;Signal;HPM_P1;HPM_P2
2023/03/04 00:01:17;;;;;;;27.33;6.97;;;;;;;4.23;100.00;161673.03;5051673;28;20041;-61
2023/03/04 00:03:42;;;;;;;40.78;8.77;;;;;;;4.20;100.00;161665.00;5052397;28;20460;-61
2023/03/04 00:06:07;;;;;;;24.75;7.70;;;;;;;4.18;100.00;161660.94;5050603;28;20041;-61
2023/03/04 00:08:33;;;;;;;26.25;5.50;;;;;;;4.18;100.00;161659.59;5052435;28;20029;-61
2023/03/04 00:10:58;;;;;;;19.92;7.70;;;;;;;4.20;100.00;161665.00;5050823;28;20052;-60
2023/03/04 00:13:24;;;;;;;22.02;7.90;;;;;;;4.23;100.00;161673.03;5052171;28;20071;-60
2023/03/04 00:15:49;;;;;;;12.30;5.15;;;;;;;4.27;100.00;161683.81;5050839;28;20667;-60
2023/03/04 00:18:15;;;;;;;13.70;5.68;;;;;;;4.26;100.00;161681.13;5052788;28;20487;-60
2023/03/04 00:20:40;;;;;;;17.00;8.20;;;;;;;4.26;100.00;161681.13;5050183;28;20048;-59
2023/03/04 00:23:06;;;;;;;18.95;5.32;;;;;;;4.26;100.00;161682.44;5052334;28;20025;-60
2023/03/04 00:25:32;;;;;;;14.85;6.55;;;;;;;4.24;100.00;161675.72;5050640;28;20443;-60
2023/03/04 00:27:57;;;;;;;22.65;6.47;;;;;;;4.20;100.00;161665.00;5052220;28;20082;-60
2023/03/04 00:30:23;;;;;;;22.27;6.15;;;;;;;4.23;100.00;161673.03;5050608;28;20033;-60
2023/03/04 00:32:48;;;;;;;15.30;5.70;;;;;;;4.18;100.00;161659.59;5052040;28;20029;-60
2023/03/04 00:35:14;;;;;;;16.05;4.85;;;;;;;4.22;100.00;161670.34;5050005;28;20479;-60
2023/03/04 00:37:39;;;;;;;29.52;5.70;;;;;;;4.18;100.00;161659.59;5052179;28;20418;-60
2023/03/04 00:40:05;;;;;;;12.15;5.07;;;;;;;4.13;100.00;161647.50;5050371;28;20041;-59
2023/03/04 00:42:31;;;;;;;11.23;4.97;;;;;;;4.12;100.00;161646.19;5051206;28;20081;-59
2023/03/04 00:44:56;;;;;;;29.30;5.15;;;;;;;4.09;100.00;161638.09;5045314;28;20041;-59
2023/03/04 00:47:21;;;;;;;22.48;6.03;;;;;;;4.07;100.00;161632.69;5051971;28;20079;-59
2023/03/04 00:49:46;;;;;;;22.15;6.97;;;;;;;4.07;100.00;161632.69;5048895;28;20028;-59
2023/03/04 00:52:12;;;;;;;22.83;5.10;;;;;;;4.08;100.00;161634.06;5051608;28;20033;-59
2023/03/04 00:54:37;;;;;;;34.95;6.97;;;;;;;4.09;100.00;161638.09;5050243;28;20021;-59
2023/03/04 00:57:03;;;;;;;19.63;5.38;;;;;;;4.09;100.00;161636.78;5051501;28;20075;-60
2023/03/04 00:59:28;;;;;;;15.50;4.88;;;;;;;4.12;100.00;161646.19;5051462;28;20021;-59
2023/03/04 01:01:53;;;;;;;13.25;5.47;;;;;;;4.09;100.00;161638.09;5050143;28;20037;-59
2023/03/04 01:04:19;;;;;;;19.27;5.80;;;;;;;4.08;100.00;161634.06;5050637;28;20472;-59
2023/03/04 01:06:44;;;;;;;15.27;4.55;;;;;;;4.08;100.00;161634.06;5049783;28;20044;-60
2023/03/04 01:09:09;;;;;;;14.68;4.65;;;;;;;4.07;100.00;161632.69;5051122;28;20074;-60
2023/03/04 01:11:35;;;;;;;21.00;6.50;;;;;;;4.03;100.00;161621.97;5049290;28;20041;-60
2023/03/04 01:14:00;;;;;;;22.08;5.80;;;;;;;4.07;100.00;161632.69;5051702;28;20021;-60
2023/03/04 01:16:25;;;;;;;20.75;6.38;;;;;;;4.12;100.00;161646.19;5049964;28;20041;-59
2023/03/04 01:18:51;;;;;;;10.38;4.82;;;;;;;4.13;100.00;161648.81;5050340;28;20036;-59
2023/03/04 01:21:16;;;;;;;30.52;6.82;;;;;;;4.15;100.00;161652.88;5049876;28;20094;-59
2023/03/04 01:23:41;;;;;;;22.85;6.03;;;;;;;4.15;100.00;161651.50;5050952;28;20495;-60
2023/03/04 01:26:07;;;;;;;24.42;4.13;;;;;;;4.15;100.00;161652.88;5049470;28;20041;-60
2023/03/04 01:28:34;;;;;;;19.75;6.47;;;;;;;4.14;100.00;161650.19;5050871;28;20036;-59
2023/03/04 01:31:03;;;;;;;15.57;7.78;;;;;;;4.13;100.00;161648.81;5049717;28;20047;-59
2023/03/04 01:33:29;;;;;;;18.98;5.18;;;;;;;4.16;100.00;161654.22;5050474;28;20487;-59
2023/03/04 01:35:54;;;;;;;18.92;6.47;;;;;;;4.16;100.00;161655.59;5049382;28;20041;-59
2023/03/04 01:38:20;;;;;;;37.42;10.77;;;;;;;4.13;100.00;161648.81;5051338;28;20593;-59
2023/03/04 01:40:45;;;;;;;18.63;5.00;;;;;;;4.17;100.00;161656.91;5048834;28;20411;-59
2023/03/04 01:43:18;;;;;;;13.98;6.15;;;;;;;4.17;100.00;161656.91;5051100;28;20032;-59
2023/03/04 01:45:44;;;;;;;13.80;3.88;;;;;;;4.16;100.00;161655.59;5048955;28;20032;-59
2023/03/04 01:48:14;;;;;;;13.20;4.82;;;;;;;4.13;100.00;161648.81;5050619;28;20032;-59
2023/03/04 01:50:39;;;;;;;19.55;4.90;;;;;;;4.15;100.00;161651.50;5048494;28;20044;-59
2023/03/04 01:53:05;;;;;;;35.97;5.53;;;;;;;4.16;100.00;161655.59;5050894;28;20052;-59
2023/03/04 01:55:31;;;;;;;10.75;4.63;;;;;;;4.16;100.00;161654.22;5049251;28;20033;-60
2023/03/04 01:57:56;;;;;;;21.30;6.70;;;;;;;4.12;100.00;161646.19;5050804;28;20079;-59
2023/03/04 02:00:22;;;;;;;20.85;6.30;;;;;;;4.13;100.00;161647.50;5049021;28;20033;-59
2023/03/04 02:02:49;;;;;;;33.00;4.90;;;;;;;4.15;100.00;161652.88;5050292;28;20033;-59
2023/03/04 02:05:15;;;;;;;29.67;8.13;;;;;;;4.17;100.00;161656.91;5048644;28;20127;-60
2023/03/04 02:07:41;;;;;;;18.65;4.45;;;;;;;4.18;100.00;161659.59;5050275;28;20558;-60
2023/03/04 02:10:07;;;;;;;13.80;3.95;;;;;;;4.17;100.00;161656.91;5048600;28;20052;-59
2023/03/04 02:12:32;;;;;;;27.50;8.13;;;;;;;4.17;100.00;161656.91;5049930;28;20056;-59
2023/03/04 02:14:58;;;;;;;19.67;5.50;;;;;;;4.21;100.00;161667.63;5049095;28;20080;-59
2023/03/04 02:17:24;;;;;;;24.25;6.15;;;;;;;4.22;100.00;161670.34;5049984;28;20040;-59
2023/03/04 02:20:13;;;;;;;15.82;5.38;;;;;;;4.20;100.00;161665.00;5048255;28;20044;-59
2023/03/04 02:22:52;;;;;;;13.52;3.72;;;;;;;4.16;100.00;161654.22;5050276;28;20481;-58
2023/03/04 02:25:23;;;;;;;21.63;5.35;;;;;;;4.14;100.00;161650.19;5048576;28;20041;-58
2023/03/04 02:27:48;;;;;;;11.52;4.63;;;;;;;4.15;100.00;161651.50;5050376;28;20021;-58
2023/03/04 02:30:15;;;;;;;17.70;3.85;;;;;;;4.11;100.00;161643.47;5048808;28;20171;-58
2023/03/04 02:32:41;;;;;;;12.75;4.53;;;;;;;4.07;100.00;161632.69;5049310;28;20043;-58
2023/03/04 02:35:16;;;;;;;16.27;4.20;;;;;;;4.08;100.00;161634.06;5048886;28;20044;-58
2023/03/04 02:37:41;;;;;;;22.05;6.10;;;;;;;4.09;100.00;161638.09;5050199;28;20021;-59
2023/03/04 02:40:14;;;;;;;42.67;8.18;;;;;;;4.10;100.00;161640.78;5048348;28;20063;-60
2023/03/04 02:42:42;;;;;;;8.23;3.85;;;;;;;4.15;100.00;161651.50;5049919;28;20080;-60
2023/03/04 02:45:34;;;;;;;14.70;4.93;;;;;;;4.13;100.00;161648.81;5048936;28;20033;-60
2023/03/04 02:47:59;;;;;;;41.00;6.75;;;;;;;4.05;100.00;161627.38;5032862;28;20039;-60
2023/03/04 02:50:28;;;;;;;8.23;3.47;;;;;;;4.10;100.00;161640.78;5048460;28;20040;-58
2023/03/04 02:52:53;;;;;;;18.67;5.63;;;;;;;4.11;100.00;161643.47;5050208;28;20021;-58
2023/03/04 02:55:19;;;;;;;18.58;5.80;;;;;;;4.10;100.00;161640.78;5048424;28;20040;-58
2023/03/04 02:57:44;;;;;;;17.15;4.72;;;;;;;4.12;100.00;161646.19;5052322;28;20075;-58
2023/03/04 03:00:10;;;;;;;13.52;5.70;;;;;;;4.13;100.00;161648.81;5052451;28;20091;-58
2023/03/04 03:02:35;;;;;;;19.10;4.80;;;;;;;4.15;100.00;161651.50;5053415;28;20033;-58
2023/03/04 03:05:01;;;;;;;20.67;5.10;;;;;;;4.14;100.00;161650.19;5052330;28;20406;-59
2023/03/04 03:07:26;;;;;;;17.20;5.50;;;;;;;4.17;100.00;161658.22;5053847;28;20052;-59
2023/03/04 03:09:52;;;;;;;19.52;5.50;;;;;;;4.01;100.00;161616.59;5051439;28;20055;-59
2023/03/04 03:12:17;;;;;;;20.17;7.53;;;;;;;4.11;100.00;161643.47;5053773;28;20048;-60
2023/03/04 03:14:42;;;;;;;9.32;3.83;;;;;;;4.10;100.00;161640.78;5052115;28;20021;-59
2023/03/04 03:17:08;;;;;;;18.65;7.30;;;;;;;4.10;100.00;161640.78;5053409;28;20028;-59
2023/03/04 03:19:33;;;;;;;22.00;7.40;;;;;;;4.11;100.00;161643.47;5052068;28;20029;-59
2023/03/04 03:21:58;;;;;;;19.05;5.85;;;;;;;4.10;100.00;161640.78;5053690;28;20079;-59
2023/03/04 03:24:24;;;;;;;12.52;4.65;;;;;;;4.09;100.00;161638.09;5052768;28;20021;-59
2023/03/04 03:26:49;;;;;;;12.73;3.95;;;;;;;4.08;100.00;161634.06;5051663;28;20044;-58
2023/03/04 03:29:14;;;;;;;17.55;5.43;;;;;;;4.06;100.00;161630.00;5053311;28;20075;-58
2023/03/04 03:31:40;;;;;;;16.10;6.10;;;;;;;4.06;100.00;161630.00;5051462;28;20045;-59
2023/03/04 03:34:05;;;;;;;18.20;6.03;;;;;;;4.02;100.00;161619.28;5052930;28;20065;-58
2023/03/04 03:36:30;;;;;;;12.90;3.67;;;;;;;3.98;100.00;161608.53;5051909;28;20060;-58
2023/03/04 03:38:56;;;;;;;16.23;7.13;;;;;;;3.93;100.00;161595.06;5053184;28;20021;-59
2023/03/04 03:41:21;;;;;;;21.75;6.07;;;;;;;3.95;100.00;161600.47;5051342;28;20057;-58
2023/03/04 03:43:47;;;;;;;15.95;5.55;;;;;;;3.94;100.00;161597.78;5052594;28;20021;-58
2023/03/04 03:46:12;;;;;;;18.63;6.80;;;;;;;3.95;100.00;161601.78;5051588;28;20048;-59
2023/03/04 03:48:37;;;;;;;15.52;5.80;;;;;;;3.95;100.00;161600.47;5052179;28;20044;-58
2023/03/04 03:51:03;;;;;;;12.55;4.43;;;;;;;3.97;100.00;161607.19;5051680;28;20037;-58
2023/03/04 03:53:28;;;;;;;12.85;4.10;;;;;;;3.99;100.00;161611.19;5052897;28;20058;-59
2023/03/04 03:55:53;;;;;;;21.10;5.32;;;;;;;3.96;100.00;161603.16;5050985;28;20155;-60
2023/03/04 03:58:19;;;;;;;11.52;4.03;;;;;;;4.01;100.00;161615.25;5052794;28;20056;-59
2023/03/04 04:00:44;;;;;;;22.10;6.00;;;;;;;4.04;100.00;161624.66;5051045;28;20044;-58
2023/03/04 04:03:15;;;;;;;20.38;3.90;;;;;;;4.08;100.00;161635.41;5052322;28;20083;-60
2023/03/04 04:05:41;;;;;;;11.57;5.13;;;;;;;4.09;100.00;161636.78;5051045;28;20033;-60
2023/03/04 04:08:06;;;;;;;19.45;6.97;;;;;;;4.10;100.00;161640.78;5051998;28;20040;-60
2023/03/04 04:10:31;;;;;;;12.05;4.85;;;;;;;4.08;100.00;161635.41;5050376;28;20033;-60
2023/03/04 04:12:57;;;;;;;19.15;7.10;;;;;;;4.11;100.00;161642.09;5053082;28;20368;-60
2023/03/04 04:15:22;;;;;;;13.15;4.57;;;;;;;4.10;100.00;161639.41;5051001;28;20044;-59
2023/03/04 04:17:47;;;;;;;17.25;5.05;;;;;;;4.08;100.00;161635.41;5052244;28;20025;-59
2023/03/04 04:20:13;;;;;;;17.40;5.35;;;;;;;4.06;100.00;161630.00;5050741;28;20037;-60
2023/03/04 04:22:38;;;;;;;25.05;6.00;;;;;;;4.06;100.00;161628.69;5052230;28;20082;-60
2023/03/04 04:25:04;;;;;;;20.58;7.50;;;;;;;4.02;100.00;161619.28;5050713;28;20102;-60
2023/03/04 04:27:29;;;;;;;19.05;4.45;;;;;;;4.02;100.00;161619.28;5052067;28;20029;-60
2023/03/04 04:29:55;;;;;;;17.73;7.10;;;;;;;4.01;100.00;161615.25;5050110;28;20051;-59
2023/03/04 04:32:20;;;;;;;10.93;3.47;;;;;;;4.04;100.00;161624.66;5051665;28;20028;-59
2023/03/04 04:34:45;;;;;;;12.27;4.65;;;;;;;4.02;100.00;161619.28;5050609;28;20021;-59
2023/03/04 04:37:11;;;;;;;14.30;3.58;;;;;;;4.03;100.00;161620.59;5051794;28;20430;-59
2023/03/04 04:39:36;;;;;;;14.43;4.60;;;;;;;4.01;100.00;161616.59;5050042;28;20025;-59
2023/03/04 04:42:01;;;;;;;16.50;4.53;;;;;;;3.99;100.00;161609.88;5052086;28;20052;-59
2023/03/04 04:44:27;;;;;;;7.80;2.97;;;;;;;3.94;100.00;161597.78;5051709;28;20029;-59
2023/03/04 04:46:52;;;;;;;22.52;4.63;;;;;;;3.96;100.00;161604.47;5069876;28;20041;-59
2023/03/04 04:49:17;;;;;;;19.27;4.10;;;;;;;3.95;100.00;161601.78;5071500;28;20390;-59
2023/03/04 04:51:43;;;;;;;10.10;3.38;;;;;;;3.96;100.00;161603.16;5069811;28;20036;-59
2023/03/04 04:54:09;;;;;;;22.85;6.35;;;;;;;3.94;100.00;161597.78;5071177;28;20028;-59
2023/03/04 04:56:35;;;;;;;16.77;4.07;;;;;;;3.96;100.00;161603.16;5070013;28;20123;-59
2023/03/04 04:59:03;;;;;;;18.30;5.28;;;;;;;3.95;100.00;161600.47;5071395;28;20028;-59
2023/03/04 05:01:29;;;;;;;8.23;2.75;;;;;;;3.94;100.00;161599.16;5069882;28;20033;-60
2023/03/04 05:03:55;;;;;;;10.13;4.28;;;;;;;3.91;100.00;161591.06;5071134;28;20045;-59
2023/03/04 05:06:22;;;;;;;11.90;3.58;;;;;;;3.94;100.00;161597.78;5070144;28;20045;-59
2023/03/04 05:08:48;;;;;;;11.15;3.72;;;;;;;3.95;100.00;161600.47;5052754;28;20075;-59
2023/03/04 05:11:13;;;;;;;10.73;3.95;;;;;;;4.00;100.00;161612.56;5069863;28;20422;-61
2023/03/04 05:13:38;;;;;;;12.45;3.40;;;;;;;4.02;100.00;161619.28;5070656;28;20062;-60
2023/03/04 05:16:04;;;;;;;8.98;4.10;;;;;;;4.00;100.00;161613.88;5069210;28;20044;-60
2023/03/04 05:18:29;;;;;;;9.23;5.55;;;;;;;4.02;100.00;161619.28;5070996;28;20032;-60
2023/03/04 05:20:58;;;;;;;11.00;4.15;;;;;;;4.02;100.00;161619.28;5068727;28;20037;-60
2023/03/04 05:23:24;;;;;;;22.58;4.47;;;;;;;3.94;100.00;161599.16;5070670;28;20028;-60
2023/03/04 05:25:50;;;;;;;10.63;3.60;;;;;;;3.96;100.00;161603.16;5069256;28;20044;-60
2023/03/04 05:28:16;;;;;;;15.18;5.35;;;;;;;3.95;100.00;161601.78;5070575;28;20031;-60
2023/03/04 05:30:43;;;;;;;15.05;5.40;;;;;;;3.97;100.00;161605.84;5068852;28;20117;-60
2023/03/04 05:33:09;;;;;;;16.65;4.78;;;;;;;3.96;100.00;161603.16;5070991;28;20024;-60
2023/03/04 05:35:35;;;;;;;12.27;4.53;;;;;;;3.94;100.00;161597.78;5068543;28;20044;-60
2023/03/04 05:38:05;;;;;;;15.98;4.75;;;;;;;3.91;100.00;161589.75;5070402;28;20033;-60
2023/03/04 05:40:31;;;;;;;12.32;4.57;;;;;;;3.89;100.00;161584.34;5067425;28;20040;-60
2023/03/04 05:42:57;;;;;;;39.33;7.28;;;;;;;3.91;100.00;161589.75;5069679;28;20044;-60
2023/03/04 05:45:23;;;;;;;14.63;3.60;;;;;;;3.87;100.00;161578.97;5069103;28;20102;-60
2023/03/04 05:47:48;;;;;;;10.43;3.72;;;;;;;3.88;100.00;161581.66;5070154;28;20505;-60
2023/03/04 05:50:14;;;;;;;21.35;7.50;;;;;;;3.88;100.00;161582.97;5068174;28;20124;-60
2023/03/04 05:52:39;;;;;;;18.48;4.32;;;;;;;3.83;100.00;161568.22;5069273;28;20059;-60
2023/03/04 05:55:05;;;;;;;15.98;3.72;;;;;;;3.86;100.00;161576.25;5068518;28;20040;-60
2023/03/04 05:57:30;;;;;;;20.13;3.55;;;;;;;3.87;100.00;161580.28;5069364;28;20107;-60
2023/03/04 05:59:56;;;;;;;14.20;5.03;;;;;;;3.86;100.00;161576.25;5067871;28;20491;-59
2023/03/04 06:02:21;;;;;;;7.18;3.15;;;;;;;3.85;100.00;161573.56;5070192;28;20391;-59
2023/03/04 06:04:46;;;;;;;9.93;4.38;;;;;;;3.84;100.00;161570.88;5067309;28;20032;-59
2023/03/04 06:07:12;;;;;;;10.18;4.57;;;;;;;3.84;100.00;161570.88;5070063;28;20078;-58
2023/03/04 06:09:37;;;;;;;15.23;3.67;;;;;;;3.80;100.00;161562.84;5059793;28;20036;-58
2023/03/04 06:12:02;;;;;;;11.40;4.00;;;;;;;3.76;100.00;161552.06;5066306;28;20032;-58
2023/03/04 06:14:28;;;;;;;15.02;3.75;;;;;;;3.73;100.00;161542.66;5065948;28;20024;-58
2023/03/04 06:16:53;;;;;;;19.17;3.97;;;;;;;3.70;100.00;161534.63;5067452;28;20289;-59
2023/03/04 06:19:18;;;;;;;6.82;3.33;;;;;;;3.69;100.00;161533.25;5069244;28;20029;-59
2023/03/04 06:21:45;;;;;;;14.23;4.38;;;;;;;3.60;100.00;161509.09;5067834;28;20040;-58
2023/03/04 06:24:10;;;;;;;15.27;4.28;;;;;;;3.58;100.00;161503.72;5069527;28;20411;-59
2023/03/04 06:26:36;;;;;;;18.58;6.03;;;;;;;3.51;100.00;161484.91;5066705;28;20046;-59
2023/03/04 06:29:01;;;;;;;17.33;5.47;;;;;;;3.50;100.00;161483.53;5070001;28;20383;-59
2023/03/04 06:31:26;;;;;;;8.38;4.78;;;;;;;3.51;100.00;161486.22;5068075;28;20040;-58
2023/03/04 06:33:52;;;;;;;20.67;9.63;;;;;;;3.53;100.00;161491.63;5072923;28;20077;-60
2023/03/04 06:36:17;;;;;;;24.85;11.90;;;;;;;3.53;100.00;161490.31;5072681;28;20036;-59
2023/03/04 06:38:43;;;;;;;25.38;10.20;;;;;;;3.54;100.00;161493.00;5073003;28;20032;-59
2023/03/04 06:41:10;;;;;;;19.65;6.43;;;;;;;3.59;100.00;161506.41;5071209;28;20148;-59
2023/03/04 06:43:36;;;;;;;16.83;7.00;;;;;;;3.55;100.00;161495.63;5072778;28;20029;-59
2023/03/04 06:46:02;;;;;;;10.60;5.57;;;;;;;3.47;100.00;161476.84;5066841;28;20134;-59
2023/03/04 06:48:27;;;;;;;18.55;6.25;;;;;;;3.50;100.00;161483.53;5068011;28;20028;-59
2023/03/04 06:50:53;;;;;;;14.93;4.07;;;;;;;3.52;100.00;161487.59;5068174;28;20439;-59
2023/03/04 06:53:18;;;;;;;22.65;6.10;;;;;;;3.54;100.00;161493.00;5072404;28;20055;-59
2023/03/04 06:55:43;;;;;;;20.83;6.85;;;;;;;3.53;100.00;161491.63;5070650;28;20049;-59
2023/03/04 06:58:09;;;;;;;15.63;5.60;;;;;;;3.51;100.00;161484.91;5073156;28;20032;-59
2023/03/04 07:00:34;;;;;;;12.32;3.83;;;;;;;3.52;100.00;161487.59;5071497;28;20517;-58
2023/03/04 07:03:00;;;;;;;31.45;7.25;;;;;;;3.47;100.00;161476.84;5072575;28;20509;-59
2023/03/04 07:05:25;;;;;;;15.20;4.38;;;;;;;3.52;100.00;161487.59;5071140;28;20120;-58
2023/03/04 07:07:50;;;;;;;22.55;5.70;;;;;;;3.52;100.00;161487.59;5071945;28;20036;-58
2023/03/04 07:10:17;;;;;;;27.83;5.45;;;;;;;3.56;100.00;161498.34;5066514;28;20040;-59
2023/03/04 07:12:42;;;;;;;10.07;3.88;;;;;;;3.60;100.00;161510.44;5073254;28;20104;-59
2023/03/04 07:15:08;;;;;;;24.45;6.93;;;;;;;3.68;100.00;161530.59;5071181;28;20043;-58
2023/03/04 07:17:33;;;;;;;9.55;5.05;;;;;;;3.71;100.00;161538.63;5073159;28;20024;-59
2023/03/04 07:19:59;;;;;;;14.10;3.45;;;;;;;3.75;100.00;161549.41;5070966;28;20048;-58
2023/03/04 07:22:24;;;;;;;10.70;4.47;;;;;;;3.77;100.00;161554.75;5072211;28;20085;-59
2023/03/04 07:24:50;;;;;;;9.10;3.85;;;;;;;3.78;100.00;161557.44;5071378;28;20767;-59
2023/03/04 07:27:15;;;;;;;15.48;4.78;;;;;;;3.80;100.00;161562.84;5073304;28;20058;-59
2023/03/04 07:29:40;;;;;;;16.65;4.88;;;;;;;3.84;100.00;161570.88;5070859;28;20027;-59
2023/03/04 07:32:07;;;;;;;13.30;5.45;;;;;;;3.86;100.00;161576.25;5073029;28;20032;-59
2023/03/04 07:34:33;;;;;;;20.85;4.65;;;;;;;3.82;100.00;161566.84;5070829;28;20437;-58
2023/03/04 07:36:58;;;;;;;17.65;4.85;;;;;;;3.89;100.00;161584.34;5072470;28;20024;-59
2023/03/04 07:39:24;;;;;;;11.13;4.78;;;;;;;3.95;100.00;161600.47;5072943;28;20024;-59
2023/03/04 07:41:49;;;;;;;11.23;4.85;;;;;;;3.97;100.00;161607.19;5070850;28;20139;-59
2023/03/04 07:44:14;;;;;;;13.50;4.47;;;;;;;3.98;100.00;161608.53;5069940;28;20471;-59
2023/03/04 07:46:40;;;;;;;15.13;6.85;;;;;;;4.06;100.00;161630.00;5069519;28;20041;-59
2023/03/04 07:49:05;;;;;;;16.50;3.53;;;;;;;4.11;100.00;161643.47;5070905;28;20082;-59
2023/03/04 07:51:30;;;;;;;11.63;3.78;;;;;;;4.16;100.00;161655.59;5069039;28;20036;-59
2023/03/04 07:53:59;;;;;;;12.10;3.50;;;;;;;4.24;100.00;161675.72;5070621;28;20033;-59
2023/03/04 07:56:27;;;;;;;13.73;4.28;;;;;;;4.28;100.00;161687.81;5070013;28;20032;-59
2023/03/04 07:58:55;;;;;;;28.83;5.15;;;;;;;4.35;100.00;161703.94;5071266;28;20169;-60
2023/03/04 08:01:24;;;;;;;12.48;5.32;;;;;;;4.44;100.00;161728.16;5070717;28;20495;-60
2023/03/04 08:03:50;;;;;;;15.90;4.13;;;;;;;4.65;100.00;161783.28;5071085;28;20524;-59
2023/03/04 08:06:16;;;;;;;6.85;4.40;;;;;;;4.69;100.00;161794.03;5067230;28;20083;-59
2023/03/04 08:08:42;;;;;;;9.18;4.57;;;;;;;4.75;100.00;161810.16;5074440;28;20020;-59
2023/03/04 08:11:13;;;;;;;11.75;3.20;;;;;;;4.72;100.00;161802.13;5069353;28;20078;-59
2023/03/04 08:13:38;;;;;;;6.97;4.45;;;;;;;4.75;100.00;161810.16;5071483;28;20048;-59
2023/03/04 08:16:04;;;;;;;11.45;4.07;;;;;;;4.78;100.00;161815.56;5069583;28;20060;-59
2023/03/04 08:18:29;;;;;;;20.35;5.55;;;;;;;4.72;100.00;161802.13;5072143;28;20028;-59
2023/03/04 08:20:55;;;;;;;10.30;4.95;;;;;;;4.62;100.00;161773.88;5069504;28;20530;-59
2023/03/04 08:23:20;;;;;;;9.48;3.42;;;;;;;4.71;100.00;161798.06;5072150;28;20157;-59
2023/03/04 08:25:46;;;;;;;10.63;3.85;;;;;;;4.81;100.00;161823.59;5070179;28;20094;-59
2023/03/04 08:28:12;;;;;;;13.90;5.60;;;;;;;4.84;100.00;161831.69;5071459;28;20024;-59
2023/03/04 08:30:39;;;;;;;5.93;4.00;;;;;;;4.91;100.00;161851.81;5069478;28;20101;-59
2023/03/04 08:33:05;;;;;;;9.75;3.60;;;;;;;4.92;100.00;161854.53;5071197;28;20028;-59
2023/03/04 08:35:30;;;;;;;6.40;4.75;;;;;;;4.92;100.00;161853.19;5069525;28;20052;-59
2023/03/04 08:37:56;;;;;;;13.13;4.40;;;;;;;4.84;100.00;161831.69;5071234;28;20028;-59
2023/03/04 08:40:21;;;;;;;21.30;7.13;;;;;;;4.80;100.00;161822.25;5069288;28;20040;-59
2023/03/04 08:42:47;;;;;;;10.60;4.20;;;;;;;4.83;100.00;161830.34;5070558;28;20016;-59
2023/03/04 08:45:12;;;;;;;9.10;4.25;;;;;;;4.89;100.00;161845.09;5069321;28;20066;-59
2023/03/04 08:47:38;;;;;;;5.93;3.47;;;;;;;4.88;100.00;161842.41;5070820;28;20561;-59
2023/03/04 08:50:05;;;;;;;11.85;4.45;;;;;;;4.79;100.00;161819.56;5069827;28;20044;-59
2023/03/04 08:52:31;;;;;;;7.88;3.58;;;;;;;4.84;100.00;161831.69;5070300;28;20021;-59
2023/03/04 08:54:57;;;;;;;14.48;4.97;;;;;;;4.92;100.00;161853.19;5069102;28;20062;-59
2023/03/04 08:57:22;;;;;;;7.70;3.20;;;;;;;4.93;100.00;161855.91;5071316;28;20032;-59
2023/03/04 08:59:48;;;;;;;6.00;3.28;;;;;;;5.06;100.00;161890.84;5068918;28;20028;-59
2023/03/04 09:02:13;;;;;;;4.53;3.20;;;;;;;5.10;100.00;161900.25;5071372;28;20035;-59
2023/03/04 09:04:40;;;;;;;4.78;3.53;;;;;;;5.17;100.00;161917.78;5069376;28;20068;-59
2023/03/04 09:07:06;;;;;;;3.33;2.60;;;;;;;5.22;100.00;161931.19;5070677;28;20565;-59
2023/03/04 09:09:31;;;;;;;7.45;3.03;;;;;;;5.35;100.00;161964.84;5068462;28;20029;-59
2023/03/04 09:11:57;;;;;;;5.43;4.53;;;;;;;5.59;100.00;162028.06;5070515;28;20029;-59
2023/03/04 09:14:22;;;;;;;6.38;3.17;;;;;;;5.68;100.00;162052.28;5070713;28;20027;-59
2023/03/04 09:16:47;;;;;;;5.18;3.05;;;;;;;5.79;100.00;162079.16;5069086;28;20530;-59
2023/03/04 09:19:13;;;;;;;6.72;3.15;;;;;;;5.74;100.00;162067.06;5070873;28;20077;-59
2023/03/04 09:21:38;;;;;;;4.65;2.38;;;;;;;5.69;100.00;162055.00;5068521;28;20037;-59
2023/03/04 09:24:03;;;;;;;4.97;3.03;;;;;;;5.65;100.00;162044.19;5067128;28;20028;-59
2023/03/04 09:26:29;;;;;;;7.50;3.67;;;;;;;5.66;100.00;162045.56;5046699;28;20535;-59
2023/03/04 09:28:58;;;;;;;3.70;3.13;;;;;;;5.75;100.00;162068.44;5069799;28;20020;-59
2023/03/04 09:31:25;;;;;;;5.00;2.90;;;;;;;5.50;100.00;162003.81;5068751;28;20033;-59
2023/03/04 09:33:52;;;;;;;7.05;3.97;;;;;;;5.53;100.00;162011.94;5069926;28;20016;-59
2023/03/04 09:36:17;;;;;;;6.72;2.75;;;;;;;5.50;100.00;162003.81;5068258;28;20373;-59
2023/03/04 09:38:43;;;;;;;9.77;3.28;;;;;;;5.39;100.00;161976.97;5070370;28;20025;-59
2023/03/04 09:41:15;;;;;;;6.15;3.10;;;;;;;5.40;100.00;161978.28;5069017;28;20061;-59
2023/03/04 09:43:41;;;;;;;7.68;2.90;;;;;;;5.31;100.00;161955.44;5068533;28;20073;-59
2023/03/04 09:46:13;;;;;;;3.40;2.92;;;;;;;5.27;100.00;161943.31;5067371;28;20047;-59
2023/03/04 09:48:44;;;;;;;34.17;7.93;;;;;;;5.35;100.00;161966.16;5053987;28;20399;-59
2023/03/04 09:51:34;;;;;;;3.45;2.83;;;;;;;5.38;100.00;161974.25;5066920;28;20051;-59
2023/03/04 09:53:59;;;;;;;9.60;3.05;;;;;;;5.37;100.00;161971.56;5053255;28;20109;-60
2023/03/04 09:56:26;;;;;;;2.58;2.38;;;;;;;5.36;100.00;161967.53;5068322;28;20123;-59
2023/03/04 09:59:24;;;;;;;3.42;2.97;;;;;;;5.32;100.00;161956.75;5069478;28;20086;-59
2023/03/04 10:01:59;;;;;;;7.68;4.65;;;;;;;5.31;100.00;161955.44;5067531;28;20563;-59
2023/03/04 10:04:39;;;;;;;8.50;3.50;;;;;;;5.30;100.00;161951.34;5070140;28;20021;-59
2023/03/04 10:07:12;;;;;;;3.88;3.45;;;;;;;5.28;100.00;161947.34;5067801;28;20148;-59
2023/03/04 10:09:49;;;;;;;4.70;2.65;;;;;;;5.31;100.00;161955.44;5069359;28;20086;-59
2023/03/04 10:12:20;;;;;;;5.00;4.43;;;;;;;5.23;100.00;161933.91;5067789;28;20411;-59
2023/03/04 10:14:51;;;;;;;7.82;3.42;;;;;;;5.28;100.00;161947.34;5069970;28;20024;-59
2023/03/04 10:17:38;;;;;;;4.88;3.17;;;;;;;5.43;100.00;161986.38;5067914;28;20407;-59
2023/03/04 10:20:17;;;;;;;11.10;3.38;;;;;;;5.42;100.00;161982.31;5068896;28;20029;-59
2023/03/04 10:22:49;;;;;;;6.25;3.95;;;;;;;5.43;100.00;161985.00;5068696;28;20118;-59
2023/03/04 10:25:21;;;;;;;16.20;4.82;;;;;;;5.50;100.00;162003.81;5068561;28;20531;-59
2023/03/04 10:28:10;;;;;;;13.18;4.95;;;;;;;5.61;100.00;162033.47;5068568;28;20060;-59
2023/03/04 10:31:00;;;;;;;5.22;2.75;;;;;;;5.71;100.00;162060.34;5067385;28;20571;-59
2023/03/04 10:33:31;;;;;;;7.50;3.88;;;;;;;5.70;100.00;162057.63;5069749;28;20029;-61
2023/03/04 10:36:19;;;;;;;15.07;7.85;;;;;;;5.81;100.00;162084.56;5058429;28;20041;-59
2023/03/04 10:38:44;;;;;;;7.10;5.45;;;;;;;5.82;100.00;162088.59;5069332;28;20389;-59
2023/03/04 10:41:20;;;;;;;12.48;5.55;;;;;;;5.84;100.00;162092.66;5067065;28;20051;-59
2023/03/04 10:44:08;;;;;;;5.38;3.92;;;;;;;5.75;100.00;162068.44;5069632;28;20029;-59
2023/03/04 10:46:40;;;;;;;9.55;6.28;;;;;;;5.54;100.00;162015.94;5053907;28;20044;-59
2023/03/04 10:49:05;;;;;;;12.60;6.07;;;;;;;5.53;100.00;162011.94;5069245;28;20039;-59
2023/03/04 10:51:31;;;;;;;5.93;4.82;;;;;;;5.65;100.00;162044.19;5067354;28;20040;-59
2023/03/04 10:54:03;;;;;;;7.85;5.80;;;;;;;5.67;100.00;162049.59;5069739;28;20024;-60
2023/03/04 10:57:15;;;;;;;12.07;7.50;;;;;;;5.89;100.00;162106.09;5067531;28;20043;-59
2023/03/04 10:59:56;;;;;;;5.65;4.10;;;;;;;6.82;100.00;162349.78;5060182;28;20068;-59
2023/03/04 11:02:26;;;;;;;14.30;6.25;;;;;;;7.33;100.00;162480.44;5066753;28;20040;-60
2023/03/04 11:05:16;;;;;;;11.43;5.18;;;;;;;8.15;100.00;162694.63;5069219;28;20024;-60
2023/03/04 11:07:58;;;;;;;13.25;6.95;;;;;;;8.13;100.00;162690.63;5067463;28;20052;-59
2023/03/04 11:10:30;;;;;;;8.05;4.68;;;;;;;7.73;100.00;162585.47;5067770;28;20114;-60
2023/03/04 11:12:59;;;;;;;8.48;4.82;;;;;;;7.14;100.00;162431.94;5069015;28;20521;-60
2023/03/04 11:15:26;;;;;;;;;;;;;;;6.69;100.00;162314.81;5068597;28;20024;-59
2023/03/04 11:18:11;;;;;;;9.95;3.22;;;;;;;6.37;100.00;162231.31;5069196;28;19917;-60
2023/03/04 11:20:42;;;;;;;11.00;3.50;;;;;;;6.18;100.00;162181.50;5070704;28;20124;-59